Pathfork, KY (40863)

10:14 PM EDT on May 27, 2015 (GMT -0400)
White Rocks View | | Change Station
CLOSE
Current Station
Personal Weather Station
Location: Rose Hill, VA
Elevation: 1470 ft
Nearby Weather Stations

Elev 1470 ft 36.65 °N, 83.40 °W | Updated 18 seconds ago

Overcast
Overcast
67.1 °F
Feels Like 67.1 °F
N
1.0
Wind Variable Wind from NW
Gusts 1.0 mph

Today
High -- | Low -- °F
--% Chance of Precip.
Yesterday
High -- | Low -- °F
Precip. -- in
6:18 AM 8:43 PM
Waxing Gibbous, 72% visible
Pressure 30.21 in
Visibility 10.0 miles
Clouds Scattered Clouds 4600 ft
Scattered Clouds 5500 ft
Overcast 12000 ft
Dew Point 65 °F
Humidity 93%
Rainfall 0.00 in
Snow Depth Not available.
UV 0 out of 12
Pollen 2.10 out of 12
Air Quality Not available.
Flu Activity Sporadic
METAR KI35 280135Z AUTO 00000KT 10SM SCT046 SCT055 OVC120 21/17 A3021 RMK AO1

More Conditions Fewer Conditions

Pressure 30.21 in
Visibility 10.0 miles
Clouds Scattered Clouds 4600 ft
Scattered Clouds 5500 ft
Overcast 12000 ft
Dew Point 65 °F
Humidity 93%
Rainfall 0.00 in
Snow Depth Not available.
UV 0 out of 12
Pollen 2.10 out of 12
Air Quality Not available.
Flu Activity Sporadic
METAR KI35 280135Z AUTO 00000KT 10SM SCT046 SCT055 OVC120 21/17 A3021 RMK AO1

More Conditions Fewer Conditions

10-Day Weather Forecast

Almanac

Astronomy

May. 27, 2015 Rise Set
Actual Time
Civil Twilight
Nautical Twilight
Astronomical Twilight
Moon
Length of Visible Light
Length of Day
Tomorrow will be .
, % of the Moon is Illuminated

Today's Extremes

State Highs State Lows

Community

WunderPhotos

Upload Photos

1,824,860 photos uploaded!

WunderBlogs® & News

Nearby

Air Quality

  Air Quality AQ Index Pollutant
Not available.

Snow Depth

Station Depth Elevation

Earthquake Activity

City Distance Mag. Time & Date
Minimum magnitude displayed is 2.5.

Coastal Water Temperatures

Place Temperature

Stations

Nearby Weather Stations

Station Location Temp. Windchill Dew Point Humidity Wind Precip. Elev Updated Type